Time;durP1;ratioP1;P1;durP2;ratioP2;P2;SDS_P1;SDS_P2;PMS_P1;PMS_P2;Temp;Humidity;BMP_temperature;BMP_pressure;BME280_temperature;BME280_humidity;BME280_pressure;Samples;Min_cycle;Max_cycle;Signal;HPM_P1;HPM_P2
2024/04/11 00:00:49;;;;;;;3.47;2.88;;;6.70;99.90;;;;;;5428047;26;20081;-51
2024/04/11 00:03:17;;;;;;;4.72;3.30;;;6.70;99.90;;;;;;5436658;26;20076;-49
2024/04/11 00:05:42;;;;;;;4.18;3.60;;;6.80;99.90;;;;;;5436532;26;20003;-52
2024/04/11 00:08:08;;;;;;;6.07;3.55;;;6.80;99.90;;;;;;5433452;26;20019;-51
2024/04/11 00:10:33;;;;;;;7.68;4.05;;;6.80;99.90;;;;;;5427258;26;20002;-52
2024/04/11 00:12:59;;;;;;;6.47;3.60;;;6.90;99.90;;;;;;5379938;26;20030;-50
2024/04/11 00:15:24;;;;;;;7.75;4.40;;;6.90;99.90;;;;;;5433118;26;19991;-52
2024/04/11 00:17:50;;;;;;;5.55;4.13;;;7.00;99.90;;;;;;5428146;26;20002;-51
2024/04/11 00:20:16;;;;;;;5.45;3.88;;;7.00;99.90;;;;;;5433136;26;20014;-48
2024/04/11 00:22:41;;;;;;;5.18;4.68;;;7.10;99.90;;;;;;5430053;26;19995;-50
2024/04/11 00:25:07;;;;;;;8.68;4.65;;;7.10;99.90;;;;;;5439883;26;20007;-49
2024/04/11 00:27:33;;;;;;;8.63;5.50;;;7.20;99.90;;;;;;5429624;26;20018;-50
2024/04/11 00:29:59;;;;;;;6.30;4.35;;;7.20;99.90;;;;;;5432301;26;19991;-51
2024/04/11 00:32:25;;;;;;;6.90;4.30;;;7.30;99.90;;;;;;5432577;26;20014;-52
2024/04/11 00:34:50;;;;;;;8.23;4.38;;;7.30;99.90;;;;;;5430150;26;19991;-53
2024/04/11 00:37:16;;;;;;;9.20;4.43;;;7.30;99.90;;;;;;5433576;26;20542;-54
2024/04/11 00:39:42;;;;;;;6.60;4.78;;;7.40;99.90;;;;;;5434160;26;20011;-50
2024/04/11 00:42:07;;;;;;;6.40;4.10;;;7.40;99.90;;;;;;5440771;26;20056;-52
2024/04/11 00:44:33;;;;;;;6.18;4.45;;;7.40;99.90;;;;;;5436107;26;20021;-49
2024/04/11 00:46:59;;;;;;;6.50;4.30;;;7.50;99.90;;;;;;5439294;26;20079;-49
2024/04/11 00:49:26;;;;;;;5.72;4.40;;;7.60;99.90;;;;;;5411325;26;20017;-50
2024/04/11 00:51:52;;;;;;;6.53;4.07;;;7.60;99.90;;;;;;5430424;26;20014;-54
2024/04/11 00:54:18;;;;;;;7.57;4.25;;;7.70;99.90;;;;;;5428436;26;19992;-49
2024/04/11 00:56:44;;;;;;;5.70;3.55;;;7.70;99.90;;;;;;5437123;26;20056;-50
2024/04/11 00:59:11;;;;;;;5.63;4.03;;;7.70;99.90;;;;;;5405138;26;20002;-50
2024/04/11 01:01:37;;;;;;;7.15;4.28;;;7.80;99.90;;;;;;5432385;26;20011;-51
2024/04/11 01:04:04;;;;;;;7.63;3.85;;;7.80;99.90;;;;;;5438057;26;19999;-52
2024/04/11 01:07:06;;;;;;;9.00;4.40;;;7.90;99.90;;;;;;5434608;26;20173;-50
2024/04/11 01:09:28;;;;;;;7.55;3.10;;;7.90;99.90;;;;;;5436223;26;20132;-51
2024/04/11 01:11:53;;;;;;;10.23;4.22;;;8.00;99.90;;;;;;5431771;26;20503;-52
2024/04/11 01:14:19;;;;;;;7.40;4.05;;;8.00;99.90;;;;;;5431349;26;20004;-55
2024/04/11 01:16:45;;;;;;;8.50;4.13;;;8.10;99.90;;;;;;5432890;26;19995;-50
2024/04/11 01:19:10;;;;;;;3.83;3.42;;;8.20;99.90;;;;;;5433098;26;19991;-49
2024/04/11 01:21:36;;;;;;;5.65;3.60;;;8.20;99.90;;;;;;5436411;26;20144;-52
2024/04/11 01:24:03;;;;;;;7.22;4.15;;;8.20;99.90;;;;;;5430954;26;20075;-54
2024/04/11 01:26:29;;;;;;;6.25;3.90;;;8.20;99.90;;;;;;5425939;26;20017;-55
2024/04/11 01:28:55;;;;;;;9.18;3.85;;;8.20;99.90;;;;;;5434845;26;20003;-52
2024/04/11 01:31:20;;;;;;;8.13;4.20;;;8.20;99.90;;;;;;5436506;26;19995;-53
2024/04/11 01:33:46;;;;;;;4.05;3.53;;;8.30;99.90;;;;;;5436203;26;20760;-50
2024/04/11 01:36:16;;;;;;;6.88;4.03;;;8.30;99.90;;;;;;5432781;26;20340;-50
2024/04/11 01:38:45;;;;;;;8.48;3.67;;;8.30;99.90;;;;;;5429198;26;20010;-52
2024/04/11 01:41:11;;;;;;;7.05;3.63;;;8.40;99.90;;;;;;5426061;26;20015;-51
2024/04/11 01:43:36;;;;;;;9.20;3.83;;;8.40;99.90;;;;;;5432752;26;20006;-50
2024/04/11 01:46:02;;;;;;;7.38;3.65;;;8.40;99.90;;;;;;5430487;26;19999;-58
2024/04/11 01:48:28;;;;;;;7.57;3.40;;;8.40;99.90;;;;;;5433420;26;19999;-49
2024/04/11 01:50:54;;;;;;;5.63;3.20;;;8.40;99.90;;;;;;5430955;26;20007;-50
2024/04/11 01:53:19;;;;;;;5.72;3.78;;;8.40;99.90;;;;;;5426603;26;20039;-52
2024/04/11 01:55:47;;;;;;;7.18;3.45;;;8.40;99.90;;;;;;5431085;26;20603;-50
2024/04/11 01:58:18;;;;;;;8.02;3.65;;;8.40;99.90;;;;;;5429112;26;20003;-49
2024/04/11 02:00:44;;;;;;;9.88;4.15;;;8.50;99.90;;;;;;5438842;26;20352;-51
2024/04/11 02:03:11;;;;;;;6.03;3.17;;;8.50;99.90;;;;;;5436029;26;20014;-53
2024/04/11 02:05:36;;;;;;;7.03;3.60;;;8.50;99.90;;;;;;5433598;26;20400;-52
2024/04/11 02:08:02;;;;;;;8.73;3.40;;;8.50;99.90;;;;;;5437668;26;20006;-53
2024/04/11 02:10:29;;;;;;;3.97;3.05;;;8.60;99.90;;;;;;5439274;26;20003;-53
2024/04/11 02:12:56;;;;;;;5.72;3.20;;;8.70;99.90;;;;;;5433658;26;20009;-49
2024/04/11 02:15:23;;;;;;;5.65;3.20;;;8.70;99.90;;;;;;5430666;26;20006;-51
2024/04/11 02:17:49;;;;;;;8.88;3.60;;;8.80;99.90;;;;;;5432293;26;20053;-51
2024/04/11 02:20:16;;;;;;;6.57;3.45;;;8.70;99.90;;;;;;5429189;26;20347;-49
2024/04/11 02:22:43;;;;;;;9.18;3.65;;;8.80;99.90;;;;;;5437805;26;20038;-50
2024/04/11 02:25:09;;;;;;;4.18;2.92;;;8.90;99.90;;;;;;5431246;26;20458;-54
2024/04/11 02:27:35;;;;;;;6.85;3.38;;;8.90;99.90;;;;;;5433146;26;20014;-52
2024/04/11 02:30:03;;;;;;;6.38;3.10;;;8.90;99.90;;;;;;5433351;26;20014;-53
2024/04/11 02:32:30;;;;;;;9.60;3.22;;;8.90;99.90;;;;;;5438575;26;20016;-52
2024/04/11 02:34:56;;;;;;;5.22;3.65;;;9.00;99.90;;;;;;5436121;26;20491;-52
2024/04/11 02:37:21;;;;;;;13.93;3.15;;;9.00;99.90;;;;;;5432459;26;20077;-50
2024/04/11 02:39:47;;;;;;;5.38;2.90;;;9.10;99.90;;;;;;5436858;26;20127;-53
2024/04/11 02:42:13;;;;;;;6.15;2.85;;;9.10;99.90;;;;;;5434611;26;20583;-51
2024/04/11 02:44:40;;;;;;;6.65;2.95;;;9.10;99.90;;;;;;5436454;26;20006;-53
2024/04/11 02:47:06;;;;;;;4.53;2.33;;;9.10;99.90;;;;;;5434515;26;20481;-49
2024/04/11 02:49:31;;;;;;;4.57;2.58;;;9.20;99.90;;;;;;5438866;26;19995;-49
2024/04/11 02:51:57;;;;;;;3.65;2.42;;;9.30;99.90;;;;;;5433104;26;20007;-50
2024/04/11 02:54:23;;;;;;;6.00;3.15;;;9.20;99.90;;;;;;5430841;26;20014;-54
2024/04/11 02:56:49;;;;;;;5.97;3.00;;;9.20;99.90;;;;;;5436858;26;20014;-52
2024/04/11 02:59:15;;;;;;;4.85;2.90;;;9.20;99.90;;;;;;5438486;26;19994;-52
2024/04/11 03:01:41;;;;;;;5.82;2.60;;;9.20;99.90;;;;;;5434007;26;20018;-52
2024/04/11 03:04:08;;;;;;;4.72;2.42;;;9.30;99.90;;;;;;5433595;26;20002;-49
2024/04/11 03:06:35;;;;;;;2.92;2.30;;;9.30;99.90;;;;;;5436817;26;20003;-52
2024/04/11 03:09:03;;;;;;;9.55;2.70;;;9.30;99.90;;;;;;5433951;26;20501;-51
2024/04/11 03:11:28;;;;;;;5.38;2.70;;;9.40;99.90;;;;;;5431005;26;20006;-51
2024/04/11 03:13:58;;;;;;;5.80;2.88;;;9.30;99.90;;;;;;5431442;26;19995;-49
2024/04/11 03:16:26;;;;;;;4.35;2.35;;;9.40;99.90;;;;;;5408962;26;19998;-49
2024/04/11 03:18:53;;;;;;;4.28;2.22;;;9.40;99.90;;;;;;5433979;26;20036;-50
2024/04/11 03:21:19;;;;;;;3.05;2.08;;;9.40;99.90;;;;;;5430323;26;20100;-49
2024/04/11 03:23:45;;;;;;;3.03;2.03;;;9.40;99.90;;;;;;5430423;26;20364;-52
2024/04/11 03:26:10;;;;;;;3.35;2.03;;;9.40;99.90;;;;;;5433084;26;20006;-51
2024/04/11 03:28:37;;;;;;;5.85;2.40;;;9.40;99.90;;;;;;5442865;26;20056;-50
2024/04/11 03:31:04;;;;;;;4.50;2.40;;;9.40;99.90;;;;;;5425187;26;19998;-50
2024/04/11 03:33:31;;;;;;;2.90;2.35;;;9.50;99.90;;;;;;5434038;26;20002;-52
2024/04/11 03:35:59;;;;;;;4.38;2.20;;;9.50;99.90;;;;;;5432279;26;20002;-51
2024/04/11 03:38:25;;;;;;;6.70;2.20;;;9.50;99.90;;;;;;5433691;26;20017;-49
2024/04/11 03:40:58;;;;;;;2.20;1.90;;;9.50;99.90;;;;;;5434249;26;21038;-50
2024/04/11 03:43:27;;;;;;;3.53;2.40;;;9.50;99.90;;;;;;5437604;26;20044;-49
2024/04/11 03:46:23;;;;;;;6.45;2.05;;;9.50;99.90;;;;;;5434682;26;20009;-52
2024/04/11 03:48:55;;;;;;;5.25;2.30;;;9.60;99.90;;;;;;5436077;26;20012;-50
2024/04/11 03:51:24;;;;;;;4.75;2.10;;;9.60;99.90;;;;;;5426769;26;20079;-50
2024/04/11 03:53:51;;;;;;;5.35;1.88;;;9.60;99.90;;;;;;5402329;26;20362;-51
2024/04/11 03:56:21;;;;;;;3.70;2.03;;;9.70;99.90;;;;;;5412432;26;20010;-52
2024/04/11 03:58:47;;;;;;;4.72;1.95;;;9.70;99.90;;;;;;5431299;26;19999;-54
2024/04/11 04:01:14;;;;;;;5.00;1.90;;;9.70;99.90;;;;;;5435800;26;20026;-51
2024/04/11 04:03:43;;;;;;;3.47;1.90;;;9.70;99.90;;;;;;5436890;26;20009;-49
2024/04/11 04:06:10;;;;;;;3.80;1.75;;;9.80;99.90;;;;;;5433589;26;20003;-50
2024/04/11 04:08:38;;;;;;;3.72;1.95;;;9.80;99.90;;;;;;5438281;26;20370;-52
2024/04/11 04:11:05;;;;;;;4.70;2.30;;;9.80;99.90;;;;;;5431219;26;20543;-53
2024/04/11 04:13:32;;;;;;;3.85;1.80;;;9.80;99.90;;;;;;5438489;26;20013;-49
2024/04/11 04:15:58;;;;;;;4.03;1.65;;;9.80;99.90;;;;;;5438921;26;20022;-52
2024/04/11 04:18:25;;;;;;;5.03;1.65;;;9.80;99.90;;;;;;5441395;26;19991;-52
2024/04/11 04:20:55;;;;;;;4.03;1.95;;;9.80;99.90;;;;;;5433607;26;20018;-51
2024/04/11 04:23:22;;;;;;;5.10;1.85;;;9.90;99.90;;;;;;5438096;26;20006;-51
2024/04/11 04:26:16;;;;;;;3.55;1.60;;;9.80;99.90;;;;;;5430294;26;20388;-56
2024/04/11 04:28:42;;;;;;;7.22;2.10;;;9.90;99.90;;;;;;5426774;26;20017;-49
2024/04/11 04:31:30;;;;;;;7.90;2.35;;;9.90;99.90;;;;;;5434184;26;20058;-52
2024/04/11 04:34:00;;;;;;;5.95;2.20;;;9.90;99.90;;;;;;5440338;26;20459;-50
2024/04/11 04:36:29;;;;;;;5.00;1.83;;;9.90;99.90;;;;;;5437248;26;20009;-50
2024/04/11 04:38:58;;;;;;;3.08;1.63;;;10.00;99.90;;;;;;5442031;26;20018;-52
2024/04/11 04:41:30;;;;;;;3.72;1.60;;;10.00;99.90;;;;;;5436888;26;19999;-50
2024/04/11 04:44:00;;;;;;;3.60;1.92;;;10.00;99.90;;;;;;5433837;26;20093;-49
2024/04/11 04:46:30;;;;;;;2.40;1.80;;;10.00;99.90;;;;;;5439567;26;20011;-50
2024/04/11 04:49:03;;;;;;;6.38;1.80;;;10.00;99.90;;;;;;5441737;26;20006;-52
2024/04/11 04:51:31;;;;;;;3.92;1.95;;;10.10;99.90;;;;;;5439477;26;20762;-51
2024/04/11 04:54:02;;;;;;;4.82;2.30;;;10.00;99.90;;;;;;5439932;26;20003;-52
2024/04/11 04:56:32;;;;;;;3.67;1.70;;;10.10;99.90;;;;;;5432332;26;20349;-50
2024/04/11 04:58:59;;;;;;;6.00;1.77;;;10.10;99.90;;;;;;5436605;26;19995;-51
2024/04/11 05:01:40;;;;;;;3.85;1.63;;;10.10;99.90;;;;;;5438218;26;20052;-50
2024/04/11 05:04:18;;;;;;;5.07;1.85;;;10.10;99.90;;;;;;5438680;26;20003;-51
2024/04/11 05:06:45;;;;;;;3.95;1.95;;;10.10;99.90;;;;;;5439833;26;20006;-49
2024/04/11 05:09:12;;;;;;;3.75;1.60;;;10.20;99.90;;;;;;5437866;26;20006;-50
2024/04/11 05:11:39;;;;;;;2.78;1.38;;;10.20;99.90;;;;;;5432953;26;20002;-52
2024/04/11 05:14:28;;;;;;;3.67;1.70;;;10.20;99.90;;;;;;5433673;26;20113;-51
2024/04/11 05:16:55;;;;;;;2.92;1.73;;;10.20;99.90;;;;;;5430621;26;20029;-50
2024/04/11 05:19:22;;;;;;;4.32;1.98;;;10.20;99.90;;;;;;5438966;26;20077;-53
2024/04/11 05:21:49;;;;;;;5.05;1.80;;;10.20;99.90;;;;;;5439324;26;20060;-51
2024/04/11 05:24:16;;;;;;;4.13;1.80;;;10.20;99.90;;;;;;5408169;26;20376;-52
2024/04/11 05:26:48;;;;;;;4.07;2.15;;;10.20;99.90;;;;;;5409337;26;20419;-51
2024/04/11 05:29:15;;;;;;;7.50;2.28;;;10.20;99.90;;;;;;5434204;26;20007;-52
2024/04/11 05:31:46;;;;;;;4.82;1.65;;;10.20;99.90;;;;;;5435586;26;20302;-51
2024/04/11 05:34:20;;;;;;;7.72;1.85;;;10.20;99.90;;;;;;5436971;26;20077;-52
2024/04/11 05:36:49;;;;;;;4.07;1.83;;;10.20;99.90;;;;;;5427120;26;20006;-51
2024/04/11 05:39:22;;;;;;;5.50;1.83;;;10.20;99.90;;;;;;5435738;26;20035;-52
2024/04/11 05:41:51;;;;;;;4.03;1.60;;;10.10;99.90;;;;;;5440359;26;20019;-51
2024/04/11 05:44:19;;;;;;;6.28;2.50;;;10.10;99.90;;;;;;5438764;26;20015;-53
2024/04/11 05:46:48;;;;;;;4.68;1.85;;;10.10;99.90;;;;;;5442857;26;20010;-51
2024/04/11 05:49:17;;;;;;;4.53;1.77;;;10.10;99.90;;;;;;5439923;26;20010;-52
2024/04/11 05:51:45;;;;;;;2.85;1.98;;;10.10;99.90;;;;;;5442053;26;20003;-52
2024/04/11 05:54:12;;;;;;;2.78;1.67;;;10.10;99.90;;;;;;5439636;26;20502;-52
2024/04/11 05:57:30;;;;;;;4.45;2.08;;;10.00;99.90;;;;;;5437754;26;20944;-49
2024/04/11 05:59:59;;;;;;;;;;;10.00;99.90;;;;;;5433720;26;20037;-50
2024/04/11 06:02:42;;;;;;;3.53;1.67;;;10.00;99.90;;;;;;5437300;26;19996;-49
2024/04/11 06:06:01;;;;;;;5.93;1.90;;;9.90;99.90;;;;;;5444023;26;20017;-52
2024/04/11 06:08:30;;;;;;;2.97;1.58;;;9.90;99.90;;;;;;5437080;26;20009;-54
2024/04/11 06:10:58;;;;;;;5.35;2.53;;;9.90;99.90;;;;;;5439223;26;20021;-52
2024/04/11 06:13:24;;;;;;;2.17;1.88;;;9.90;99.90;;;;;;5433627;26;20010;-53
2024/04/11 06:15:52;;;;;;;3.90;2.08;;;9.90;99.90;;;;;;5439544;26;19998;-51
2024/04/11 06:18:24;;;;;;;4.43;2.38;;;10.00;99.90;;;;;;5435993;26;20004;-50
2024/04/11 06:20:51;;;;;;;7.72;2.22;;;10.00;99.90;;;;;;5441132;26;19999;-51
2024/04/11 06:23:19;;;;;;;2.13;1.60;;;10.00;99.90;;;;;;5436908;26;20018;-51
2024/04/11 06:26:45;;;;;;;2.97;2.05;;;10.00;99.90;;;;;;5437646;26;20079;-53
2024/04/11 06:29:19;;;;;;;3.00;1.70;;;10.10;99.90;;;;;;5433471;26;20034;-53
2024/04/11 06:31:47;;;;;;;4.07;1.85;;;10.10;99.90;;;;;;5437773;26;20597;-50
2024/04/11 06:34:14;;;;;;;3.17;1.90;;;10.10;99.90;;;;;;5438942;26;20013;-53
2024/04/11 06:36:49;;;;;;;8.63;2.17;;;10.20;99.90;;;;;;5434416;26;20535;-48
2024/04/11 06:39:17;;;;;;;4.40;2.05;;;10.20;99.90;;;;;;5435308;26;20014;-53
2024/04/11 06:41:49;;;;;;;3.95;2.30;;;10.30;99.90;;;;;;5435860;26;19999;-51
2024/04/11 06:44:16;;;;;;;3.47;1.92;;;10.30;99.90;;;;;;5434811;26;19999;-52
2024/04/11 06:46:49;;;;;;;3.65;1.80;;;10.30;99.90;;;;;;5435970;26;19999;-49
2024/04/11 06:49:16;;;;;;;5.38;2.05;;;10.40;99.90;;;;;;5436322;26;20054;-53
2024/04/11 06:51:48;;;;;;;4.15;1.80;;;10.30;99.90;;;;;;5432520;26;19998;-52
2024/04/11 06:54:18;;;;;;;3.70;1.83;;;10.30;99.90;;;;;;5435009;26;19994;-52
2024/04/11 06:56:45;;;;;;;2.72;2.03;;;10.20;99.90;;;;;;5436108;26;19999;-53
2024/04/11 06:59:17;;;;;;;6.90;2.08;;;10.20;99.90;;;;;;5436096;26;20083;-50
2024/04/11 07:05:02;;;;;;;5.28;1.65;;;10.10;99.90;;;;;;5432178;26;20135;-54
2024/04/11 07:07:35;;;;;;;6.93;3.03;;;10.10;99.90;;;;;;5438542;26;20017;-51
2024/04/11 07:10:36;;;;;;;4.85;2.25;;;10.10;99.90;;;;;;5436446;26;19995;-51
2024/04/11 07:16:29;;;;;;;7.13;2.78;;;10.00;99.90;;;;;;5436512;26;20006;-53
2024/04/11 07:22:18;;;;;;;3.60;2.05;;;10.00;99.90;;;;;;5435131;26;20005;-49
2024/04/11 07:24:44;;;;;;;6.45;1.98;;;9.90;99.90;;;;;;5432022;26;20495;-48
2024/04/11 07:27:17;;;;;;;4.00;2.20;;;9.90;99.90;;;;;;5439492;26;19995;-50
2024/04/11 07:29:47;;;;;;;4.85;2.60;;;9.90;99.90;;;;;;5429727;26;20003;-51
2024/04/11 07:32:16;;;;;;;6.07;2.95;;;9.80;99.90;;;;;;5435101;26;20346;-51
2024/04/11 07:34:45;;;;;;;3.75;1.95;;;9.90;99.90;;;;;;5436269;26;20768;-51
2024/04/11 07:37:15;;;;;;;5.85;2.80;;;9.90;99.90;;;;;;5430921;26;20010;-51
2024/04/11 07:40:00;;;;;;;7.43;2.83;;;9.80;99.90;;;;;;5440204;26;20068;-48
2024/04/11 07:45:17;;;;;;;5.47;3.10;;;9.80;99.90;;;;;;5421188;26;20355;-51
2024/04/11 07:47:47;;;;;;;9.18;4.80;;;9.80;99.90;;;;;;5437832;26;19991;-50
2024/04/11 07:50:14;;;;;;;6.60;4.68;;;9.80;99.90;;;;;;5437053;26;20044;-51
2024/04/11 07:52:40;;;;;;;7.10;4.07;;;9.80;99.90;;;;;;5408969;26;20023;-52
2024/04/11 07:55:14;;;;;;;8.75;5.40;;;9.80;99.90;;;;;;5408758;26;19995;-51
2024/04/11 07:57:44;;;;;;;6.85;3.58;;;9.80;99.90;;;;;;5430163;26;19995;-50
2024/04/11 08:00:20;;;;;;;8.27;3.13;;;9.80;99.90;;;;;;5431748;26;19999;-50
2024/04/11 08:02:48;;;;;;;6.78;4.85;;;9.80;99.90;;;;;;5430422;26;20014;-49
2024/04/11 08:05:16;;;;;;;6.78;4.22;;;9.90;99.90;;;;;;5436208;26;20019;-48
2024/04/11 08:07:42;;;;;;;9.45;3.30;;;9.90;99.90;;;;;;5411604;26;20042;-46
2024/04/11 08:10:10;;;;;;;5.35;3.45;;;9.90;99.90;;;;;;5432860;26;20007;-49
2024/04/11 08:12:36;;;;;;;6.45;3.25;;;9.90;99.90;;;;;;5435596;26;20033;-48
2024/04/11 08:15:02;;;;;;;6.40;3.38;;;9.90;99.90;;;;;;5434234;26;19999;-52
2024/04/11 08:17:29;;;;;;;4.78;3.50;;;9.90;99.90;;;;;;5434721;26;20070;-46
2024/04/11 08:19:55;;;;;;;10.90;4.45;;;9.90;99.90;;;;;;5438048;26;19999;-52
2024/04/11 08:22:25;;;;;;;6.32;3.45;;;10.00;99.90;;;;;;5439108;26;20017;-50
2024/04/11 08:24:51;;;;;;;5.13;3.45;;;10.10;99.90;;;;;;5435373;26;19999;-51
2024/04/11 08:27:17;;;;;;;8.10;3.80;;;10.10;99.90;;;;;;5435596;26;20685;-52
2024/04/11 08:29:44;;;;;;;9.02;5.10;;;10.20;99.90;;;;;;5436703;26;20009;-52
2024/04/11 08:32:10;;;;;;;5.00;4.05;;;10.20;99.90;;;;;;5433439;26;20061;-48
2024/04/11 08:34:49;;;;;;;10.05;6.30;;;10.30;99.90;;;;;;5434421;26;20342;-49
2024/04/11 08:37:22;;;;;;;9.77;5.68;;;10.40;99.90;;;;;;5425581;26;19995;-47
2024/04/11 08:39:49;;;;;;;16.23;8.52;;;10.50;99.90;;;;;;5436303;26;20023;-49
2024/04/11 08:42:18;;;;;;;9.82;4.75;;;10.60;99.90;;;;;;5430994;26;20382;-50
2024/04/11 08:44:52;;;;;;;10.48;7.05;;;10.60;99.90;;;;;;5434266;26;20006;-53
2024/04/11 08:47:41;;;;;;;13.63;8.88;;;10.70;99.90;;;;;;5402011;26;19999;-51
2024/04/11 08:50:09;;;;;;;9.82;6.30;;;10.80;99.90;;;;;;5435066;26;20687;-48
2024/04/11 08:52:46;;;;;;;12.32;6.05;;;10.80;99.90;;;;;;5432294;26;20077;-48
2024/04/11 08:55:23;;;;;;;11.05;5.50;;;10.90;99.90;;;;;;5429293;26;20014;-49
2024/04/11 08:57:51;;;;;;;8.13;4.70;;;10.90;99.90;;;;;;5411511;26;19991;-51
2024/04/11 09:00:22;;;;;;;11.60;5.05;;;11.00;99.90;;;;;;5433287;26;20082;-50
2024/04/11 09:02:48;;;;;;;6.13;3.53;;;11.00;99.90;;;;;;5436969;26;19995;-51
2024/04/11 09:05:15;;;;;;;11.82;4.50;;;11.10;99.90;;;;;;5437256;26;20457;-51
2024/04/11 09:07:44;;;;;;;8.90;4.97;;;11.10;99.90;;;;;;5439303;26;19999;-50
2024/04/11 09:10:12;;;;;;;6.07;3.45;;;11.10;99.90;;;;;;5433227;26;20335;-49
2024/04/11 09:12:47;;;;;;;7.93;4.13;;;11.10;99.90;;;;;;5437222;26;20493;-51
2024/04/11 09:15:16;;;;;;;8.68;4.15;;;11.20;99.90;;;;;;5440067;26;20010;-50
2024/04/11 09:17:44;;;;;;;5.57;3.03;;;11.30;99.90;;;;;;5436047;26;19995;-51
2024/04/11 09:20:15;;;;;;;7.20;3.80;;;11.40;99.90;;;;;;5438023;26;20015;-50
2024/04/11 09:22:48;;;;;;;6.57;2.80;;;11.50;99.90;;;;;;5435939;26;20006;-51
2024/04/11 09:25:14;;;;;;;6.82;3.20;;;11.60;99.90;;;;;;5431305;26;19999;-53
2024/04/11 09:27:50;;;;;;;6.30;2.78;;;11.70;99.90;;;;;;5435829;26;20013;-50
2024/04/11 09:30:28;;;;;;;3.15;2.85;;;11.70;99.90;;;;;;5410508;26;20447;-50
2024/04/11 09:51:20;;;;;;;6.65;3.22;;;11.40;99.90;;;;;;5370927;26;19996;-49
2024/04/11 09:53:46;;;;;;;5.32;2.80;;;11.50;99.90;;;;;;5397090;26;19996;-49
2024/04/11 09:56:15;;;;;;;5.72;3.25;;;11.40;99.90;;;;;;5397237;26;20000;-52
2024/04/11 09:58:43;;;;;;;6.50;2.92;;;11.50;99.90;;;;;;5397025;26;20015;-52
2024/04/11 10:01:31;;;;;;;6.45;2.90;;;11.50;99.90;;;;;;5402624;26;20054;-52
2024/04/11 10:04:04;;;;;;;8.65;2.97;;;11.40;99.90;;;;;;5399587;26;20474;-53
2024/04/11 10:06:30;;;;;;;9.90;4.07;;;11.40;99.90;;;;;;5399274;26;20000;-50
2024/04/11 10:09:12;;;;;;;5.35;3.13;;;11.50;99.90;;;;;;5402560;26;20016;-50
2024/04/11 10:11:51;;;;;;;4.88;2.72;;;11.50;99.90;;;;;;5399062;26;19996;-50
2024/04/11 10:14:20;;;;;;;4.97;2.85;;;11.50;99.90;;;;;;5400102;26;20006;-54
2024/04/11 10:16:53;;;;;;;7.88;3.80;;;11.50;99.90;;;;;;5394803;26;19993;-50
2024/04/11 10:19:26;;;;;;;6.40;3.33;;;11.50;99.90;;;;;;5394314;26;20008;-52
2024/04/11 10:22:06;;;;;;;11.23;3.80;;;11.50;99.90;;;;;;5399999;26;20050;-49
2024/04/11 10:24:35;;;;;;;7.63;2.97;;;11.60;99.90;;;;;;5397079;26;20467;-51
2024/04/11 10:27:09;;;;;;;4.10;3.05;;;11.70;99.90;;;;;;5404750;26;20011;-51
2024/04/11 10:29:43;;;;;;;6.00;3.35;;;11.80;99.90;;;;;;5399791;26;20011;-50
2024/04/11 10:32:22;;;;;;;8.50;3.78;;;11.90;99.90;;;;;;5398718;26;20438;-53
2024/04/11 10:34:56;;;;;;;4.57;3.25;;;12.00;99.90;;;;;;5391543;26;19999;-52
2024/04/11 10:37:33;;;;;;;4.45;2.92;;;12.00;99.90;;;;;;5391693;26;19996;-49
2024/04/11 10:40:00;;;;;;;9.00;4.13;;;12.10;99.90;;;;;;5406985;26;20003;-47
2024/04/11 10:42:37;;;;;;;8.35;4.07;;;12.20;99.90;;;;;;5401612;26;20008;-51
2024/04/11 10:45:19;;;;;;;6.78;3.33;;;12.30;99.90;;;;;;5403870;26;20013;-48
2024/04/11 10:47:45;;;;;;;7.13;3.95;;;12.50;99.90;;;;;;5386181;26;20004;-50
2024/04/11 10:50:13;;;;;;;5.43;3.80;;;12.60;99.90;;;;;;5395172;26;20381;-49
2024/04/11 10:52:45;;;;;;;9.02;3.72;;;12.80;99.90;;;;;;5387274;26;20113;-51
2024/04/11 10:55:22;;;;;;;5.55;3.53;;;12.90;99.90;;;;;;5401136;26;20479;-52
2024/04/11 10:57:56;;;;;;;7.50;3.47;;;13.00;99.90;;;;;;5392996;26;19992;-50
2024/04/11 11:00:52;;;;;;;7.38;4.00;;;13.00;99.90;;;;;;5389211;26;20078;-51
2024/04/11 11:03:14;;;;;;;6.10;3.78;;;12.90;99.90;;;;;;5396886;26;20124;-54
2024/04/11 11:05:45;;;;;;;6.65;3.55;;;12.80;99.90;;;;;;5378800;26;20000;-47
2024/04/11 11:08:12;;;;;;;4.03;3.35;;;12.70;99.90;;;;;;5396895;26;20004;-51
2024/04/11 11:10:40;;;;;;;5.85;3.80;;;12.70;99.90;;;;;;5388374;26;20011;-52
2024/04/11 11:13:06;;;;;;;8.35;3.65;;;12.70;99.90;;;;;;5378418;26;20010;-49
2024/04/11 11:15:34;;;;;;;5.78;3.22;;;12.80;99.90;;;;;;5386166;26;20506;-50
2024/04/11 11:17:59;;;;;;;7.20;3.47;;;12.80;99.90;;;;;;5395959;26;20009;-50
2024/04/11 11:20:26;;;;;;;7.20;4.00;;;12.90;99.90;;;;;;5388241;26;20020;-51
2024/04/11 11:22:56;;;;;;;4.53;3.25;;;12.90;99.90;;;;;;5394203;26;20022;-50
2024/04/11 11:25:23;;;;;;;5.60;3.92;;;13.00;99.90;;;;;;5387197;26;20004;-50
2024/04/11 11:27:50;;;;;;;5.53;3.70;;;13.10;99.90;;;;;;5384457;26;20364;-51
2024/04/11 11:30:16;;;;;;;7.15;3.60;;;13.10;99.90;;;;;;5393632;26;20000;-50
2024/04/11 11:32:43;;;;;;;5.18;3.28;;;13.20;99.90;;;;;;5385677;26;20015;-53
2024/04/11 11:35:12;;;;;;;8.60;3.72;;;13.40;99.90;;;;;;5393346;26;20022;-50
2024/04/11 11:37:38;;;;;;;8.32;4.15;;;13.50;99.90;;;;;;5381063;26;20078;-53
2024/04/11 11:42:52;;;;;;;4.88;3.22;;;13.60;99.90;;;;;;5399444;26;20011;-51
2024/04/11 11:45:26;;;;;;;8.73;3.90;;;13.70;99.90;;;;;;5396924;26;19995;-54
2024/04/11 11:47:57;;;;;;;8.52;4.47;;;13.70;99.90;;;;;;5398014;26;19992;-51
2024/04/11 11:50:23;;;;;;;5.13;4.10;;;13.70;99.90;;;;;;5482413;21;20006;-56
2024/04/11 11:52:50;;;;;;;5.40;3.45;;;13.70;99.90;;;;;;5455057;26;20119;-53
2024/04/11 11:55:17;;;;;;;7.30;4.03;;;13.70;99.90;;;;;;5447460;26;20451;-50
2024/04/11 11:57:54;;;;;;;7.10;4.10;;;13.80;99.90;;;;;;5463985;26;19995;-55
2024/04/11 12:00:22;;;;;;;7.93;4.25;;;13.90;99.90;;;;;;5441958;26;20403;-53
2024/04/11 12:03:00;;;;;;;6.40;3.50;;;14.00;99.90;;;;;;5429979;26;20018;-50
2024/04/11 12:05:28;;;;;;;7.70;4.50;;;14.10;99.90;;;;;;5433071;26;20468;-54
2024/04/11 12:07:58;;;;;;;6.72;4.15;;;14.10;99.90;;;;;;5426781;26;20002;-51
2024/04/11 12:10:59;;;;;;;4.88;3.60;;;14.20;99.90;;;;;;5440279;26;20454;-53
2024/04/11 12:13:35;;;;;;;6.55;4.15;;;14.20;99.90;;;;;;5445296;26;20392;-53
2024/04/11 12:16:04;;;;;;;5.80;4.30;;;14.20;99.90;;;;;;5443889;26;20002;-56
2024/04/11 12:18:30;;;;;;;4.78;4.10;;;14.20;99.90;;;;;;5442627;26;19995;-50
2024/04/11 12:21:00;;;;;;;8.20;4.15;;;14.20;99.90;;;;;;5450602;26;19995;-50
2024/04/11 12:23:29;;;;;;;5.38;4.38;;;14.10;99.90;;;;;;5443359;26;20514;-50
2024/04/11 12:25:56;;;;;;;7.15;4.47;;;14.20;99.90;;;;;;5445367;26;20001;-55
2024/04/11 12:28:22;;;;;;;7.40;3.90;;;14.20;99.90;;;;;;5432866;26;20000;-51
2024/04/11 12:30:59;;;;;;;5.30;3.75;;;14.20;99.90;;;;;;5436686;26;20031;-51
2024/04/11 12:33:27;;;;;;;6.78;4.20;;;14.30;99.90;;;;;;5439604;26;20005;-54
2024/04/11 12:35:56;;;;;;;9.18;4.65;;;14.30;99.90;;;;;;5449910;26;20072;-50
2024/04/11 12:38:30;;;;;;;6.50;4.85;;;14.30;99.90;;;;;;5455280;26;19994;-50
2024/04/11 12:40:58;;;;;;;5.70;4.40;;;14.40;99.90;;;;;;5434381;26;19996;-52
2024/04/11 12:43:28;;;;;;;7.18;4.55;;;14.40;99.90;;;;;;5398673;26;20033;-50
2024/04/11 12:45:55;;;;;;;7.20;5.25;;;14.40;99.90;;;;;;5428297;26;19999;-53
2024/04/11 12:48:23;;;;;;;7.13;4.68;;;14.50;99.90;;;;;;5438102;26;20008;-52
2024/04/11 12:50:50;;;;;;;6.18;5.05;;;14.50;99.90;;;;;;5442238;26;20458;-51
2024/04/11 12:53:23;;;;;;;11.15;5.22;;;14.40;99.90;;;;;;5446971;26;19995;-53
2024/04/11 12:55:58;;;;;;;8.05;4.70;;;14.40;99.90;;;;;;5446380;26;20063;-52
2024/04/11 12:58:25;;;;;;;6.40;4.95;;;14.40;99.90;;;;;;5442444;26;20483;-55
2024/04/11 13:01:00;;;;;;;7.65;5.15;;;14.40;99.90;;;;;;5453985;26;20072;-52
2024/04/11 13:03:52;;;;;;;8.77;5.47;;;14.40;99.90;;;;;;5445069;26;20013;-53
2024/04/11 13:06:27;;;;;;;10.95;6.07;;;14.30;99.90;;;;;;5449919;26;20870;-49
2024/04/11 13:08:55;;;;;;;6.18;5.05;;;14.40;99.90;;;;;;5447230;26;20007;-52
2024/04/11 13:11:36;;;;;;;8.60;6.32;;;14.40;99.90;;;;;;5454379;26;19999;-52
2024/04/11 13:14:17;;;;;;;9.20;5.65;;;14.40;99.90;;;;;;5440025;26;20013;-53
2024/04/11 13:16:50;;;;;;;9.30;6.00;;;14.30;99.90;;;;;;5432610;26;20536;-49
2024/04/11 13:19:19;;;;;;;7.15;5.85;;;14.30;99.90;;;;;;5446323;26;20359;-54
2024/04/11 13:22:02;;;;;;;10.13;6.00;;;14.30;99.90;;;;;;5444645;26;20067;-53
2024/04/11 13:24:59;;;;;;;8.77;5.65;;;14.20;99.90;;;;;;5431157;26;20006;-54
2024/04/11 13:27:46;;;;;;;9.40;6.07;;;14.20;99.90;;;;;;5420510;26;20143;-52
2024/04/11 13:30:12;;;;;;;8.98;5.90;;;14.20;99.90;;;;;;5445998;26;20038;-53
2024/04/11 13:32:52;;;;;;;9.70;6.20;;;14.20;99.90;;;;;;5441479;26;20002;-52
2024/04/11 13:35:36;;;;;;;8.35;5.40;;;14.20;99.90;;;;;;5438507;26;20229;-51
2024/04/11 13:38:17;;;;;;;9.02;6.10;;;14.20;99.90;;;;;;5448813;26;19994;-52
2024/04/11 13:43:42;;;;;;;6.78;5.88;;;14.10;99.90;;;;;;5443747;26;20018;-51